sensor_id;sensor_type;location;lat;lon;timestamp;P1;durP1;ratioP1;P2;durP2;ratioP2
3267;SDS011;1646;52.450;13.326;2023-08-01T00:02:25;5.70;;;4.30;;
3267;SDS011;1646;52.450;13.326;2023-08-01T00:07:24;5.57;;;3.70;;
3267;SDS011;1646;52.450;13.326;2023-08-01T00:12:23;7.73;;;3.50;;
3267;SDS011;1646;52.450;13.326;2023-08-01T00:17:22;5.30;;;3.40;;
3267;SDS011;1646;52.450;13.326;2023-08-01T00:22:22;9.00;;;3.30;;
3267;SDS011;1646;52.450;13.326;2023-08-01T00:27:20;4.50;;;2.40;;
3267;SDS011;1646;52.450;13.326;2023-08-01T00:32:19;2.50;;;2.30;;
3267;SDS011;1646;52.450;13.326;2023-08-01T00:37:18;6.87;;;2.60;;
3267;SDS011;1646;52.450;13.326;2023-08-01T00:42:18;2.60;;;2.20;;
3267;SDS011;1646;52.450;13.326;2023-08-01T00:47:16;5.27;;;2.30;;
3267;SDS011;1646;52.450;13.326;2023-08-01T00:52:16;4.30;;;2.93;;
3267;SDS011;1646;52.450;13.326;2023-08-01T00:57:15;2.93;;;2.27;;
3267;SDS011;1646;52.450;13.326;2023-08-01T01:02:15;2.03;;;1.93;;
3267;SDS011;1646;52.450;13.326;2023-08-01T01:07:13;2.43;;;2.27;;
3267;SDS011;1646;52.450;13.326;2023-08-01T01:12:14;3.17;;;2.23;;
3267;SDS011;1646;52.450;13.326;2023-08-01T01:17:13;2.83;;;2.60;;
3267;SDS011;1646;52.450;13.326;2023-08-01T01:22:13;2.67;;;2.47;;
3267;SDS011;1646;52.450;13.326;2023-08-01T01:27:13;2.93;;;2.50;;
3267;SDS011;1646;52.450;13.326;2023-08-01T01:32:14;3.50;;;3.03;;
3267;SDS011;1646;52.450;13.326;2023-08-01T01:37:15;2.50;;;2.30;;
3267;SDS011;1646;52.450;13.326;2023-08-01T01:42:13;3.77;;;2.60;;
3267;SDS011;1646;52.450;13.326;2023-08-01T01:47:11;6.30;;;2.97;;
3267;SDS011;1646;52.450;13.326;2023-08-01T01:52:09;3.20;;;2.90;;
3267;SDS011;1646;52.450;13.326;2023-08-01T01:57:09;3.47;;;3.10;;
3267;SDS011;1646;52.450;13.326;2023-08-01T02:02:07;3.43;;;3.00;;
3267;SDS011;1646;52.450;13.326;2023-08-01T02:07:06;3.33;;;3.03;;
3267;SDS011;1646;52.450;13.326;2023-08-01T02:12:05;4.57;;;3.83;;
3267;SDS011;1646;52.450;13.326;2023-08-01T02:17:07;3.33;;;2.70;;
3267;SDS011;1646;52.450;13.326;2023-08-01T02:22:05;3.00;;;2.80;;
3267;SDS011;1646;52.450;13.326;2023-08-01T02:27:04;3.57;;;3.23;;
3267;SDS011;1646;52.450;13.326;2023-08-01T02:32:03;3.03;;;2.83;;
3267;SDS011;1646;52.450;13.326;2023-08-01T02:37:03;3.00;;;2.80;;
3267;SDS011;1646;52.450;13.326;2023-08-01T02:42:02;2.90;;;2.70;;
3267;SDS011;1646;52.450;13.326;2023-08-01T02:47:01;2.97;;;2.77;;
3267;SDS011;1646;52.450;13.326;2023-08-01T02:51:59;3.20;;;2.90;;
3267;SDS011;1646;52.450;13.326;2023-08-01T02:56:58;4.20;;;3.33;;
3267;SDS011;1646;52.450;13.326;2023-08-01T03:01:57;3.03;;;2.73;;
3267;SDS011;1646;52.450;13.326;2023-08-01T03:06:55;3.83;;;3.33;;
3267;SDS011;1646;52.450;13.326;2023-08-01T03:11:53;3.57;;;3.27;;
3267;SDS011;1646;52.450;13.326;2023-08-01T03:16:53;4.30;;;3.10;;
3267;SDS011;1646;52.450;13.326;2023-08-01T03:21:51;3.40;;;2.90;;
3267;SDS011;1646;52.450;13.326;2023-08-01T03:26:52;3.07;;;2.87;;
3267;SDS011;1646;52.450;13.326;2023-08-01T03:31:50;2.63;;;2.43;;
3267;SDS011;1646;52.450;13.326;2023-08-01T03:36:50;2.70;;;2.50;;
3267;SDS011;1646;52.450;13.326;2023-08-01T03:41:49;2.60;;;2.40;;
3267;SDS011;1646;52.450;13.326;2023-08-01T03:46:49;2.97;;;2.77;;
3267;SDS011;1646;52.450;13.326;2023-08-01T03:51:47;3.10;;;2.80;;
3267;SDS011;1646;52.450;13.326;2023-08-01T03:56:46;4.43;;;3.10;;
3267;SDS011;1646;52.450;13.326;2023-08-01T04:01:45;2.50;;;2.30;;
3267;SDS011;1646;52.450;13.326;2023-08-01T04:06:43;2.27;;;2.17;;
3267;SDS011;1646;52.450;13.326;2023-08-01T04:11:42;3.00;;;2.63;;
3267;SDS011;1646;52.450;13.326;2023-08-01T04:16:41;2.60;;;2.40;;
3267;SDS011;1646;52.450;13.326;2023-08-01T04:21:40;2.77;;;2.57;;
3267;SDS011;1646;52.450;13.326;2023-08-01T04:26:38;2.57;;;2.20;;
3267;SDS011;1646;52.450;13.326;2023-08-01T04:31:37;2.37;;;2.20;;
3267;SDS011;1646;52.450;13.326;2023-08-01T04:36:37;2.00;;;1.90;;
3267;SDS011;1646;52.450;13.326;2023-08-01T04:41:35;3.63;;;2.30;;
3267;SDS011;1646;52.450;13.326;2023-08-01T04:46:34;2.53;;;2.33;;
3267;SDS011;1646;52.450;13.326;2023-08-01T04:51:32;2.40;;;2.20;;
3267;SDS011;1646;52.450;13.326;2023-08-01T04:56:32;2.77;;;2.47;;
3267;SDS011;1646;52.450;13.326;2023-08-01T05:01:30;4.53;;;2.70;;
3267;SDS011;1646;52.450;13.326;2023-08-01T05:06:28;2.80;;;2.10;;
3267;SDS011;1646;52.450;13.326;2023-08-01T05:11:26;4.00;;;2.90;;
3267;SDS011;1646;52.450;13.326;2023-08-01T05:16:26;6.53;;;2.43;;
3267;SDS011;1646;52.450;13.326;2023-08-01T05:21:25;3.23;;;2.40;;
3267;SDS011;1646;52.450;13.326;2023-08-01T05:26:23;2.63;;;2.30;;
3267;SDS011;1646;52.450;13.326;2023-08-01T05:31:22;2.43;;;2.23;;
3267;SDS011;1646;52.450;13.326;2023-08-01T05:36:21;9.60;;;2.77;;
3267;SDS011;1646;52.450;13.326;2023-08-01T05:41:20;2.90;;;2.60;;
3267;SDS011;1646;52.450;13.326;2023-08-01T05:46:18;5.63;;;3.23;;
3267;SDS011;1646;52.450;13.326;2023-08-01T05:51:16;4.97;;;2.60;;
3267;SDS011;1646;52.450;13.326;2023-08-01T05:56:16;2.50;;;2.30;;
3267;SDS011;1646;52.450;13.326;2023-08-01T06:01:14;2.90;;;2.70;;
3267;SDS011;1646;52.450;13.326;2023-08-01T06:06:13;5.43;;;2.50;;
3267;SDS011;1646;52.450;13.326;2023-08-01T06:11:11;3.23;;;2.63;;
3267;SDS011;1646;52.450;13.326;2023-08-01T06:16:11;2.33;;;2.10;;
3267;SDS011;1646;52.450;13.326;2023-08-01T06:21:10;2.10;;;1.90;;
3267;SDS011;1646;52.450;13.326;2023-08-01T06:26:08;2.40;;;2.20;;
3267;SDS011;1646;52.450;13.326;2023-08-01T06:31:06;2.30;;;2.10;;
3267;SDS011;1646;52.450;13.326;2023-08-01T06:36:06;2.37;;;2.27;;
3267;SDS011;1646;52.450;13.326;2023-08-01T06:41:04;2.50;;;2.33;;
3267;SDS011;1646;52.450;13.326;2023-08-01T06:46:03;2.93;;;2.70;;
3267;SDS011;1646;52.450;13.326;2023-08-01T06:51:01;2.10;;;2.00;;
3267;SDS011;1646;52.450;13.326;2023-08-01T06:56:01;4.60;;;2.33;;
3267;SDS011;1646;52.450;13.326;2023-08-01T07:00:59;1.97;;;1.87;;
3267;SDS011;1646;52.450;13.326;2023-08-01T07:05:58;2.23;;;2.03;;
3267;SDS011;1646;52.450;13.326;2023-08-01T07:10:56;3.97;;;2.10;;
3267;SDS011;1646;52.450;13.326;2023-08-01T07:15:55;2.20;;;2.10;;
3267;SDS011;1646;52.450;13.326;2023-08-01T07:21:00;3.90;;;2.30;;
3267;SDS011;1646;52.450;13.326;2023-08-01T07:25:58;2.20;;;2.00;;
3267;SDS011;1646;52.450;13.326;2023-08-01T07:31:01;2.00;;;1.90;;
3267;SDS011;1646;52.450;13.326;2023-08-01T07:36:02;2.20;;;2.00;;
3267;SDS011;1646;52.450;13.326;2023-08-01T07:41:02;2.20;;;1.97;;
3267;SDS011;1646;52.450;13.326;2023-08-01T07:46:02;2.03;;;1.87;;
3267;SDS011;1646;52.450;13.326;2023-08-01T07:51:01;1.90;;;1.80;;
3267;SDS011;1646;52.450;13.326;2023-08-01T07:56:00;2.40;;;2.20;;
3267;SDS011;1646;52.450;13.326;2023-08-01T08:01:03;1.77;;;1.67;;
3267;SDS011;1646;52.450;13.326;2023-08-01T08:06:02;1.60;;;1.50;;
3267;SDS011;1646;52.450;13.326;2023-08-01T08:11:02;1.83;;;1.73;;
3267;SDS011;1646;52.450;13.326;2023-08-01T08:16:00;1.63;;;1.53;;
3267;SDS011;1646;52.450;13.326;2023-08-01T08:21:02;1.80;;;1.70;;
3267;SDS011;1646;52.450;13.326;2023-08-01T08:26:00;1.60;;;1.50;;
3267;SDS011;1646;52.450;13.326;2023-08-01T08:31:01;2.40;;;1.60;;
3267;SDS011;1646;52.450;13.326;2023-08-01T08:36:01;1.50;;;1.40;;
3267;SDS011;1646;52.450;13.326;2023-08-01T08:41:03;2.60;;;1.50;;
3267;SDS011;1646;52.450;13.326;2023-08-01T08:46:05;2.90;;;1.40;;
3267;SDS011;1646;52.450;13.326;2023-08-01T08:51:08;1.93;;;1.30;;
3267;SDS011;1646;52.450;13.326;2023-08-01T08:56:08;3.70;;;1.80;;
3267;SDS011;1646;52.450;13.326;2023-08-01T09:01:07;1.40;;;1.30;;
3267;SDS011;1646;52.450;13.326;2023-08-01T09:06:08;2.37;;;1.40;;
3267;SDS011;1646;52.450;13.326;2023-08-01T09:11:11;1.60;;;1.30;;
3267;SDS011;1646;52.450;13.326;2023-08-01T09:16:10;1.30;;;0.90;;
3267;SDS011;1646;52.450;13.326;2023-08-01T09:21:11;1.83;;;1.03;;
3267;SDS011;1646;52.450;13.326;2023-08-01T09:26:12;1.63;;;1.10;;
3267;SDS011;1646;52.450;13.326;2023-08-01T09:31:10;1.50;;;1.20;;
3267;SDS011;1646;52.450;13.326;2023-08-01T09:36:10;0.90;;;0.70;;
3267;SDS011;1646;52.450;13.326;2023-08-01T09:41:19;2.20;;;0.90;;
3267;SDS011;1646;52.450;13.326;2023-08-01T09:46:17;1.00;;;0.93;;
3267;SDS011;1646;52.450;13.326;2023-08-01T09:51:18;1.30;;;0.83;;
3267;SDS011;1646;52.450;13.326;2023-08-01T09:56:17;2.00;;;0.93;;
3267;SDS011;1646;52.450;13.326;2023-08-01T10:01:19;1.73;;;0.70;;
3267;SDS011;1646;52.450;13.326;2023-08-01T10:06:20;1.97;;;1.00;;
3267;SDS011;1646;52.450;13.326;2023-08-01T10:11:20;2.40;;;0.77;;
3267;SDS011;1646;52.450;13.326;2023-08-01T10:16:19;3.23;;;0.87;;
3267;SDS011;1646;52.450;13.326;2023-08-01T10:21:20;0.70;;;0.70;;
3267;SDS011;1646;52.450;13.326;2023-08-01T10:26:20;0.73;;;0.73;;
3267;SDS011;1646;52.450;13.326;2023-08-01T10:31:18;1.33;;;0.80;;
3267;SDS011;1646;52.450;13.326;2023-08-01T10:36:19;0.80;;;0.80;;
3267;SDS011;1646;52.450;13.326;2023-08-01T10:41:20;1.20;;;0.70;;
3267;SDS011;1646;52.450;13.326;2023-08-01T10:46:21;1.00;;;0.70;;
3267;SDS011;1646;52.450;13.326;2023-08-01T10:51:21;0.73;;;0.73;;
3267;SDS011;1646;52.450;13.326;2023-08-01T10:56:19;0.73;;;0.73;;
3267;SDS011;1646;52.450;13.326;2023-08-01T11:01:18;0.60;;;0.60;;
3267;SDS011;1646;52.450;13.326;2023-08-01T11:06:16;0.70;;;0.67;;
3267;SDS011;1646;52.450;13.326;2023-08-01T11:11:16;1.37;;;0.70;;
3267;SDS011;1646;52.450;13.326;2023-08-01T11:16:14;0.70;;;0.70;;
3267;SDS011;1646;52.450;13.326;2023-08-01T11:21:23;0.60;;;0.60;;
3267;SDS011;1646;52.450;13.326;2023-08-01T11:26:24;1.47;;;1.37;;
3267;SDS011;1646;52.450;13.326;2023-08-01T11:31:22;1.93;;;1.30;;
3267;SDS011;1646;52.450;13.326;2023-08-01T11:36:21;2.03;;;1.43;;
3267;SDS011;1646;52.450;13.326;2023-08-01T11:41:22;2.63;;;1.97;;
3267;SDS011;1646;52.450;13.326;2023-08-01T11:46:22;2.57;;;2.37;;
3267;SDS011;1646;52.450;13.326;2023-08-01T11:51:28;3.03;;;2.80;;
3267;SDS011;1646;52.450;13.326;2023-08-01T11:56:26;3.60;;;2.77;;
3267;SDS011;1646;52.450;13.326;2023-08-01T12:01:26;3.30;;;3.00;;
3267;SDS011;1646;52.450;13.326;2023-08-01T12:06:26;6.63;;;3.10;;
3267;SDS011;1646;52.450;13.326;2023-08-01T12:11:29;2.70;;;2.20;;
3267;SDS011;1646;52.450;13.326;2023-08-01T12:16:29;4.43;;;2.73;;
3267;SDS011;1646;52.450;13.326;2023-08-01T12:21:27;4.47;;;3.20;;
3267;SDS011;1646;52.450;13.326;2023-08-01T12:26:26;8.13;;;3.80;;
3267;SDS011;1646;52.450;13.326;2023-08-01T12:31:24;4.17;;;2.80;;
3267;SDS011;1646;52.450;13.326;2023-08-01T12:36:24;4.90;;;3.40;;
3267;SDS011;1646;52.450;13.326;2023-08-01T12:41:22;3.93;;;2.80;;
3267;SDS011;1646;52.450;13.326;2023-08-01T12:46:20;5.33;;;2.90;;
3267;SDS011;1646;52.450;13.326;2023-08-01T12:51:19;5.87;;;3.30;;
3267;SDS011;1646;52.450;13.326;2023-08-01T12:56:19;3.90;;;2.90;;
3267;SDS011;1646;52.450;13.326;2023-08-01T13:01:17;5.30;;;3.17;;
3267;SDS011;1646;52.450;13.326;2023-08-01T13:06:15;7.20;;;3.47;;
3267;SDS011;1646;52.450;13.326;2023-08-01T13:11:14;5.73;;;3.07;;
3267;SDS011;1646;52.450;13.326;2023-08-01T13:16:14;3.20;;;2.83;;
3267;SDS011;1646;52.450;13.326;2023-08-01T13:21:13;3.47;;;2.90;;
3267;SDS011;1646;52.450;13.326;2023-08-01T13:26:12;4.63;;;2.60;;
3267;SDS011;1646;52.450;13.326;2023-08-01T13:31:10;7.40;;;3.50;;
3267;SDS011;1646;52.450;13.326;2023-08-01T13:36:10;2.60;;;2.40;;
3267;SDS011;1646;52.450;13.326;2023-08-01T13:41:08;5.20;;;2.93;;
3267;SDS011;1646;52.450;13.326;2023-08-01T13:46:24;5.10;;;3.03;;
3267;SDS011;1646;52.450;13.326;2023-08-01T13:51:27;3.23;;;2.93;;
3267;SDS011;1646;52.450;13.326;2023-08-01T13:56:28;3.60;;;2.40;;
3267;SDS011;1646;52.450;13.326;2023-08-01T14:01:26;6.63;;;2.80;;
3267;SDS011;1646;52.450;13.326;2023-08-01T14:06:26;3.30;;;2.73;;
3267;SDS011;1646;52.450;13.326;2023-08-01T14:11:24;4.20;;;3.13;;
3267;SDS011;1646;52.450;13.326;2023-08-01T14:16:23;3.40;;;2.80;;
3267;SDS011;1646;52.450;13.326;2023-08-01T14:21:21;5.03;;;2.23;;
3267;SDS011;1646;52.450;13.326;2023-08-01T14:26:20;7.10;;;2.60;;
3267;SDS011;1646;52.450;13.326;2023-08-01T14:31:19;7.33;;;3.17;;
3267;SDS011;1646;52.450;13.326;2023-08-01T14:36:17;3.50;;;2.80;;
3267;SDS011;1646;52.450;13.326;2023-08-01T14:41:15;2.77;;;2.30;;
3267;SDS011;1646;52.450;13.326;2023-08-01T14:46:36;8.10;;;2.40;;
3267;SDS011;1646;52.450;13.326;2023-08-01T14:51:35;2.20;;;2.00;;
3267;SDS011;1646;52.450;13.326;2023-08-01T14:56:34;2.57;;;2.07;;
3267;SDS011;1646;52.450;13.326;2023-08-01T15:01:32;3.80;;;2.20;;
3267;SDS011;1646;52.450;13.326;2023-08-01T15:06:32;7.23;;;2.63;;
3267;SDS011;1646;52.450;13.326;2023-08-01T15:11:31;3.07;;;2.23;;
3267;SDS011;1646;52.450;13.326;2023-08-01T15:16:29;4.07;;;2.00;;
3267;SDS011;1646;52.450;13.326;2023-08-01T15:21:27;18.40;;;2.60;;
3267;SDS011;1646;52.450;13.326;2023-08-01T15:26:27;3.93;;;2.20;;
3267;SDS011;1646;52.450;13.326;2023-08-01T15:31:26;4.77;;;2.43;;
3267;SDS011;1646;52.450;13.326;2023-08-01T15:36:25;2.77;;;1.70;;
3267;SDS011;1646;52.450;13.326;2023-08-01T15:41:25;8.40;;;2.23;;
3267;SDS011;1646;52.450;13.326;2023-08-01T15:46:25;2.30;;;1.70;;
3267;SDS011;1646;52.450;13.326;2023-08-01T15:51:23;5.27;;;1.63;;
3267;SDS011;1646;52.450;13.326;2023-08-01T15:56:21;5.37;;;1.73;;
3267;SDS011;1646;52.450;13.326;2023-08-01T16:01:20;4.97;;;1.23;;
3267;SDS011;1646;52.450;13.326;2023-08-01T16:06:19;2.90;;;1.50;;
3267;SDS011;1646;52.450;13.326;2023-08-01T16:11:18;1.70;;;1.60;;
3267;SDS011;1646;52.450;13.326;2023-08-01T16:16:16;3.17;;;1.63;;
3267;SDS011;1646;52.450;13.326;2023-08-01T16:21:14;2.50;;;1.20;;
3267;SDS011;1646;52.450;13.326;2023-08-01T16:26:14;3.60;;;2.07;;
3267;SDS011;1646;52.450;13.326;2023-08-01T16:31:13;6.90;;;4.30;;
3267;SDS011;1646;52.450;13.326;2023-08-01T16:36:13;4.70;;;1.73;;
3267;SDS011;1646;52.450;13.326;2023-08-01T16:41:11;1.50;;;1.30;;
3267;SDS011;1646;52.450;13.326;2023-08-01T16:46:11;3.10;;;1.50;;
3267;SDS011;1646;52.450;13.326;2023-08-01T16:51:10;1.73;;;1.63;;
3267;SDS011;1646;52.450;13.326;2023-08-01T16:56:09;3.40;;;1.80;;
3267;SDS011;1646;52.450;13.326;2023-08-01T17:01:07;1.80;;;1.57;;
3267;SDS011;1646;52.450;13.326;2023-08-01T17:06:09;1.47;;;1.37;;
3267;SDS011;1646;52.450;13.326;2023-08-01T17:11:07;1.40;;;1.30;;
3267;SDS011;1646;52.450;13.326;2023-08-01T17:16:05;2.47;;;1.40;;
3267;SDS011;1646;52.450;13.326;2023-08-01T17:21:04;5.13;;;1.73;;
3267;SDS011;1646;52.450;13.326;2023-08-01T17:26:03;3.10;;;1.60;;
3267;SDS011;1646;52.450;13.326;2023-08-01T17:31:02;2.20;;;1.50;;
3267;SDS011;1646;52.450;13.326;2023-08-01T17:36:01;5.53;;;1.40;;
3267;SDS011;1646;52.450;13.326;2023-08-01T17:41:05;3.20;;;1.80;;
3267;SDS011;1646;52.450;13.326;2023-08-01T17:46:13;2.20;;;1.80;;
3267;SDS011;1646;52.450;13.326;2023-08-01T17:51:12;3.43;;;1.60;;
3267;SDS011;1646;52.450;13.326;2023-08-01T17:56:13;2.90;;;1.40;;
3267;SDS011;1646;52.450;13.326;2023-08-01T18:01:12;1.57;;;1.20;;
3267;SDS011;1646;52.450;13.326;2023-08-01T18:06:12;1.67;;;1.10;;
3267;SDS011;1646;52.450;13.326;2023-08-01T18:11:13;4.77;;;1.50;;
3267;SDS011;1646;52.450;13.326;2023-08-01T18:16:22;1.27;;;1.07;;
3267;SDS011;1646;52.450;13.326;2023-08-01T18:21:22;4.73;;;2.10;;
3267;SDS011;1646;52.450;13.326;2023-08-01T18:26:22;2.40;;;1.20;;
3267;SDS011;1646;52.450;13.326;2023-08-01T18:31:22;10.90;;;1.60;;
3267;SDS011;1646;52.450;13.326;2023-08-01T18:36:21;5.67;;;1.50;;
3267;SDS011;1646;52.450;13.326;2023-08-01T18:41:22;2.50;;;1.40;;
3267;SDS011;1646;52.450;13.326;2023-08-01T18:46:21;9.50;;;2.20;;
3267;SDS011;1646;52.450;13.326;2023-08-01T18:51:20;2.03;;;1.80;;
3267;SDS011;1646;52.450;13.326;2023-08-01T18:56:19;2.17;;;1.33;;
3267;SDS011;1646;52.450;13.326;2023-08-01T19:01:20;2.43;;;1.20;;
3267;SDS011;1646;52.450;13.326;2023-08-01T19:06:21;1.60;;;1.50;;
3267;SDS011;1646;52.450;13.326;2023-08-01T19:11:21;4.60;;;1.87;;
3267;SDS011;1646;52.450;13.326;2023-08-01T19:16:20;2.83;;;1.57;;
3267;SDS011;1646;52.450;13.326;2023-08-01T19:21:19;4.33;;;1.60;;
3267;SDS011;1646;52.450;13.326;2023-08-01T19:26:17;2.23;;;1.80;;
3267;SDS011;1646;52.450;13.326;2023-08-01T19:31:15;3.00;;;1.60;;
3267;SDS011;1646;52.450;13.326;2023-08-01T19:36:15;4.20;;;1.40;;
3267;SDS011;1646;52.450;13.326;2023-08-01T19:41:13;2.40;;;1.50;;
3267;SDS011;1646;52.450;13.326;2023-08-01T19:46:12;2.33;;;1.73;;
3267;SDS011;1646;52.450;13.326;2023-08-01T19:51:12;2.30;;;1.67;;
3267;SDS011;1646;52.450;13.326;2023-08-01T19:56:11;4.73;;;2.00;;
3267;SDS011;1646;52.450;13.326;2023-08-01T20:01:10;2.40;;;2.00;;
3267;SDS011;1646;52.450;13.326;2023-08-01T20:06:08;2.37;;;1.70;;
3267;SDS011;1646;52.450;13.326;2023-08-01T20:11:07;4.63;;;1.80;;
3267;SDS011;1646;52.450;13.326;2023-08-01T20:16:06;2.20;;;2.00;;
3267;SDS011;1646;52.450;13.326;2023-08-01T20:21:05;3.23;;;2.37;;
3267;SDS011;1646;52.450;13.326;2023-08-01T20:26:03;2.17;;;2.00;;
3267;SDS011;1646;52.450;13.326;2023-08-01T20:31:01;3.77;;;2.20;;
3267;SDS011;1646;52.450;13.326;2023-08-01T20:36:02;2.40;;;1.73;;
3267;SDS011;1646;52.450;13.326;2023-08-01T20:41:01;5.30;;;2.10;;
3267;SDS011;1646;52.450;13.326;2023-08-01T20:46:07;4.63;;;2.20;;
3267;SDS011;1646;52.450;13.326;2023-08-01T20:51:07;3.83;;;2.03;;
3267;SDS011;1646;52.450;13.326;2023-08-01T20:56:05;1.97;;;1.87;;
3267;SDS011;1646;52.450;13.326;2023-08-01T21:01:04;2.33;;;2.07;;
3267;SDS011;1646;52.450;13.326;2023-08-01T21:06:02;4.03;;;2.20;;
3267;SDS011;1646;52.450;13.326;2023-08-01T21:11:06;3.93;;;1.83;;
3267;SDS011;1646;52.450;13.326;2023-08-01T21:16:10;5.03;;;2.43;;
3267;SDS011;1646;52.450;13.326;2023-08-01T21:21:09;5.43;;;2.13;;
3267;SDS011;1646;52.450;13.326;2023-08-01T21:26:10;2.23;;;2.03;;
3267;SDS011;1646;52.450;13.326;2023-08-01T21:31:08;2.60;;;2.20;;
3267;SDS011;1646;52.450;13.326;2023-08-01T21:36:09;6.70;;;2.50;;
3267;SDS011;1646;52.450;13.326;2023-08-01T21:41:12;5.60;;;2.17;;
3267;SDS011;1646;52.450;13.326;2023-08-01T21:46:11;3.77;;;1.77;;
3267;SDS011;1646;52.450;13.326;2023-08-01T21:51:09;2.40;;;2.20;;
3267;SDS011;1646;52.450;13.326;2023-08-01T21:56:08;3.10;;;2.27;;
3267;SDS011;1646;52.450;13.326;2023-08-01T22:01:07;6.00;;;2.23;;
3267;SDS011;1646;52.450;13.326;2023-08-01T22:06:06;7.33;;;2.20;;
3267;SDS011;1646;52.450;13.326;2023-08-01T22:11:04;3.10;;;2.10;;
3267;SDS011;1646;52.450;13.326;2023-08-01T22:16:03;2.10;;;1.90;;
3267;SDS011;1646;52.450;13.326;2023-08-01T22:21:03;3.83;;;2.77;;
3267;SDS011;1646;52.450;13.326;2023-08-01T22:26:01;2.93;;;1.83;;
3267;SDS011;1646;52.450;13.326;2023-08-01T22:31:00;3.23;;;2.00;;
3267;SDS011;1646;52.450;13.326;2023-08-01T22:35:59;2.50;;;1.87;;
3267;SDS011;1646;52.450;13.326;2023-08-01T22:41:13;3.00;;;1.80;;
3267;SDS011;1646;52.450;13.326;2023-08-01T22:46:12;6.90;;;1.90;;
3267;SDS011;1646;52.450;13.326;2023-08-01T22:51:13;5.23;;;2.03;;
3267;SDS011;1646;52.450;13.326;2023-08-01T22:56:14;4.43;;;2.17;;
3267;SDS011;1646;52.450;13.326;2023-08-01T23:01:14;4.83;;;2.17;;
3267;SDS011;1646;52.450;13.326;2023-08-01T23:06:14;4.70;;;2.40;;
3267;SDS011;1646;52.450;13.326;2023-08-01T23:11:14;4.17;;;1.70;;
3267;SDS011;1646;52.450;13.326;2023-08-01T23:16:13;6.53;;;2.37;;
3267;SDS011;1646;52.450;13.326;2023-08-01T23:21:12;4.50;;;2.00;;
3267;SDS011;1646;52.450;13.326;2023-08-01T23:26:10;6.47;;;2.70;;
3267;SDS011;1646;52.450;13.326;2023-08-01T23:31:10;6.73;;;2.30;;
3267;SDS011;1646;52.450;13.326;2023-08-01T23:36:08;2.57;;;2.00;;
3267;SDS011;1646;52.450;13.326;2023-08-01T23:41:10;4.20;;;2.50;;
3267;SDS011;1646;52.450;13.326;2023-08-01T23:46:10;7.47;;;2.23;;
3267;SDS011;1646;52.450;13.326;2023-08-01T23:51:14;3.27;;;2.50;;
3267;SDS011;1646;52.450;13.326;2023-08-01T23:56:13;3.17;;;2.60;;
